Time;durP1;ratioP1;P1;durP2;ratioP2;P2;SDS_P1;SDS_P2;PMS_P1;PMS_P2;Temp;Humidity;BMP_temperature;BMP_pressure;BME280_temperature;BME280_humidity;BME280_pressure;Samples;Min_cycle;Max_cycle;Signal;HPM_P1;HPM_P2
2023/08/03 00:01:55;;;;;;;13.93;6.00;;;24.30;99.90;;;;;;4891421;29;20047;-75
2023/08/03 00:04:21;;;;;;;9.00;5.50;;;24.30;99.90;;;;;;4904938;29;20076;-74
2023/08/03 00:06:47;;;;;;;10.20;5.90;;;24.30;99.90;;;;;;4886172;29;20514;-74
2023/08/03 00:09:13;;;;;;;8.68;5.30;;;24.30;99.90;;;;;;4906897;29;20032;-75
2023/08/03 00:11:38;;;;;;;7.20;5.82;;;24.30;99.90;;;;;;4900947;29;20025;-74
2023/08/03 00:14:04;;;;;;;9.80;5.30;;;24.20;99.90;;;;;;4906217;29;20024;-75
2023/08/03 00:16:30;;;;;;;7.93;5.75;;;24.20;99.90;;;;;;4906582;29;20032;-75
2023/08/03 00:18:55;;;;;;;11.68;5.93;;;24.10;99.90;;;;;;4900592;29;20127;-75
2023/08/03 00:21:21;;;;;;;12.07;5.05;;;24.10;99.90;;;;;;4911030;29;20040;-75
2023/08/03 00:23:47;;;;;;;10.57;5.50;;;24.10;99.90;;;;;;4890425;29;20037;-74
2023/08/03 00:26:13;;;;;;;7.47;5.43;;;24.00;99.90;;;;;;4910184;29;20566;-75
2023/08/03 00:28:39;;;;;;;13.18;6.30;;;24.00;99.90;;;;;;4906934;29;20037;-74
2023/08/03 00:31:05;;;;;;;10.35;5.10;;;24.00;99.90;;;;;;4909242;29;20031;-75
2023/08/03 00:33:31;;;;;;;11.85;5.80;;;23.90;99.90;;;;;;4906932;29;20115;-74
2023/08/03 00:35:56;;;;;;;7.55;5.93;;;24.00;99.90;;;;;;4909573;29;20035;-75
2023/08/03 00:38:22;;;;;;;6.97;5.20;;;23.90;99.90;;;;;;4908976;29;20036;-74
2023/08/03 00:40:50;;;;;;;14.23;5.43;;;23.90;99.90;;;;;;4892157;29;20024;-74
2023/08/03 00:43:19;;;;;;;8.88;4.75;;;23.90;99.90;;;;;;4897278;29;20076;-74
2023/08/03 00:45:45;;;;;;;9.60;5.45;;;23.90;99.90;;;;;;4906025;29;20031;-74
2023/08/03 00:48:11;;;;;;;7.07;5.50;;;23.90;99.90;;;;;;4896957;29;20036;-74
2023/08/03 00:50:37;;;;;;;8.05;5.25;;;23.90;99.90;;;;;;4896282;29;20030;-74
2023/08/03 00:53:03;;;;;;;10.63;5.93;;;23.90;99.90;;;;;;4911042;29;20441;-75
2023/08/03 00:55:29;;;;;;;7.88;5.35;;;23.90;99.90;;;;;;4908315;29;20024;-74
2023/08/03 00:57:54;;;;;;;5.45;5.03;;;23.80;99.90;;;;;;4913737;29;20394;-74
2023/08/03 01:00:20;;;;;;;10.93;5.75;;;23.80;99.90;;;;;;4909328;29;20079;-75
2023/08/03 01:02:46;;;;;;;7.63;5.13;;;23.80;99.90;;;;;;4906938;29;20037;-74
2023/08/03 01:05:11;;;;;;;6.88;5.45;;;23.80;99.90;;;;;;4892891;29;20028;-74
2023/08/03 01:07:37;;;;;;;9.82;5.55;;;23.80;99.90;;;;;;4912881;29;20289;-75
2023/08/03 01:10:03;;;;;;;5.88;5.00;;;23.80;99.90;;;;;;4909059;29;20024;-74
2023/08/03 01:12:29;;;;;;;6.47;5.88;;;23.90;99.90;;;;;;4900022;29;20028;-74
2023/08/03 01:14:55;;;;;;;7.00;5.18;;;23.80;99.90;;;;;;4907429;29;20021;-74
2023/08/03 01:17:21;;;;;;;8.48;4.68;;;23.80;99.90;;;;;;4906355;29;20459;-75
2023/08/03 01:19:47;;;;;;;9.85;5.40;;;23.80;99.90;;;;;;4909268;29;20092;-75
2023/08/03 01:22:13;;;;;;;8.48;5.10;;;23.90;99.90;;;;;;4914446;29;20043;-75
2023/08/03 01:24:39;;;;;;;6.72;4.82;;;23.90;99.90;;;;;;4907196;29;20024;-74
2023/08/03 01:27:06;;;;;;;11.85;6.47;;;23.80;99.90;;;;;;4906367;29;20085;-74
2023/08/03 01:29:32;;;;;;;7.88;5.25;;;23.70;99.90;;;;;;4907015;29;20039;-75
2023/08/03 01:31:59;;;;;;;8.40;5.25;;;23.70;99.90;;;;;;4913772;29;20028;-75
2023/08/03 01:34:27;;;;;;;8.45;5.63;;;23.50;99.90;;;;;;4899977;29;20028;-75
2023/08/03 01:36:53;;;;;;;10.80;5.95;;;23.60;99.90;;;;;;4911387;29;20027;-75
2023/08/03 01:39:23;;;;;;;12.68;5.63;;;23.60;99.90;;;;;;4908878;29;20467;-75
2023/08/03 01:41:48;;;;;;;7.22;5.95;;;23.60;99.90;;;;;;4905089;29;20033;-75
2023/08/03 01:44:24;;;;;;;10.68;6.25;;;23.60;99.90;;;;;;4898218;29;20562;-75
2023/08/03 01:46:54;;;;;;;10.07;5.65;;;23.60;99.90;;;;;;4892257;29;20036;-75
2023/08/03 01:49:22;;;;;;;8.27;6.10;;;23.40;99.90;;;;;;4908341;29;20036;-75
2023/08/03 01:51:48;;;;;;;8.27;5.75;;;23.40;99.90;;;;;;4914976;29;20028;-75
2023/08/03 01:54:14;;;;;;;6.88;5.50;;;23.40;99.90;;;;;;4906545;29;20542;-75
2023/08/03 01:56:41;;;;;;;8.57;5.38;;;23.40;99.90;;;;;;4889877;29;20028;-75
2023/08/03 01:59:06;;;;;;;8.68;6.00;;;23.40;99.90;;;;;;4910174;29;20036;-75
2023/08/03 02:01:32;;;;;;;6.75;5.25;;;23.40;99.90;;;;;;4904489;29;20509;-75
2023/08/03 02:03:58;;;;;;;7.25;5.03;;;23.40;99.90;;;;;;4908998;29;20024;-75
2023/08/03 02:06:24;;;;;;;10.48;5.93;;;23.30;99.90;;;;;;4908963;29;20056;-75
2023/08/03 02:08:49;;;;;;;7.53;5.63;;;23.30;99.90;;;;;;4905839;29;20383;-74
2023/08/03 02:11:15;;;;;;;11.10;5.43;;;23.30;99.90;;;;;;4905570;29;20031;-75
2023/08/03 02:13:41;;;;;;;7.47;5.57;;;23.30;99.90;;;;;;4908662;29;20028;-75
2023/08/03 02:16:11;;;;;;;6.72;5.15;;;23.30;99.90;;;;;;4910003;29;20032;-75
2023/08/03 02:18:40;;;;;;;10.70;5.95;;;23.20;99.90;;;;;;4906590;29;20040;-75
2023/08/03 02:21:07;;;;;;;10.32;5.65;;;23.20;99.90;;;;;;4911319;29;20314;-75
2023/08/03 02:23:33;;;;;;;5.93;5.43;;;23.10;99.90;;;;;;4906585;29;20028;-75
2023/08/03 02:26:03;;;;;;;7.45;5.50;;;23.20;99.90;;;;;;4910203;29;20122;-74
2023/08/03 02:28:30;;;;;;;8.70;5.72;;;23.10;99.90;;;;;;4910740;29;20032;-75
2023/08/03 02:30:55;;;;;;;6.15;5.05;;;23.10;99.90;;;;;;4905475;29;20088;-74
2023/08/03 02:33:21;;;;;;;5.97;5.30;;;23.10;99.90;;;;;;4904949;29;20035;-74
2023/08/03 02:35:47;;;;;;;7.32;5.22;;;23.20;99.90;;;;;;4904836;29;20028;-74
2023/08/03 02:38:12;;;;;;;7.40;5.88;;;23.10;99.90;;;;;;4909921;29;20432;-75
2023/08/03 02:40:38;;;;;;;8.60;5.75;;;23.00;99.90;;;;;;4906171;29;20096;-75
2023/08/03 02:43:04;;;;;;;7.78;5.25;;;23.00;99.90;;;;;;4904740;29;20025;-75
2023/08/03 02:45:30;;;;;;;9.20;6.10;;;23.00;99.90;;;;;;4906405;29;20035;-75
2023/08/03 02:47:56;;;;;;;9.27;5.75;;;23.00;99.90;;;;;;4910818;29;20115;-75
2023/08/03 02:50:21;;;;;;;6.80;5.32;;;23.10;99.90;;;;;;4908580;29;20032;-74
2023/08/03 02:52:47;;;;;;;5.93;4.85;;;23.10;99.90;;;;;;4910238;29;20021;-75
2023/08/03 02:55:13;;;;;;;13.68;5.75;;;23.00;99.90;;;;;;4907494;29;20036;-74
2023/08/03 02:57:39;;;;;;;11.30;6.20;;;23.10;99.90;;;;;;4894825;29;20028;-75
2023/08/03 03:00:05;;;;;;;10.20;5.00;;;23.10;99.90;;;;;;4897844;29;20088;-75
2023/08/03 03:02:31;;;;;;;10.38;5.25;;;23.10;99.90;;;;;;4894950;29;20036;-74
2023/08/03 03:04:57;;;;;;;12.18;5.18;;;23.00;99.90;;;;;;4896802;29;20032;-75
2023/08/03 03:07:22;;;;;;;12.13;6.00;;;23.00;99.90;;;;;;4904752;29;20028;-74
2023/08/03 03:09:48;;;;;;;10.60;6.03;;;23.00;99.90;;;;;;4907254;29;20036;-75
2023/08/03 03:12:14;;;;;;;5.03;4.47;;;23.00;99.90;;;;;;4907699;29;20032;-75
2023/08/03 03:14:40;;;;;;;10.30;5.00;;;23.00;99.90;;;;;;4905212;29;20028;-75
2023/08/03 03:17:05;;;;;;;10.27;5.60;;;23.10;99.90;;;;;;4904418;29;20024;-75
2023/08/03 03:19:31;;;;;;;9.02;5.57;;;23.10;99.90;;;;;;4905277;29;20051;-75
2023/08/03 03:21:57;;;;;;;5.85;5.10;;;23.00;99.90;;;;;;4910875;29;20108;-75
2023/08/03 03:24:23;;;;;;;11.18;5.43;;;23.00;99.90;;;;;;4890722;29;20168;-74
2023/08/03 03:26:52;;;;;;;11.82;5.25;;;23.10;99.90;;;;;;4901586;29;20051;-75
2023/08/03 03:29:17;;;;;;;6.22;5.35;;;23.10;99.90;;;;;;4903937;29;20033;-74
2023/08/03 03:31:43;;;;;;;5.70;5.07;;;23.10;99.90;;;;;;4909105;29;20360;-75
2023/08/03 03:34:09;;;;;;;5.85;4.70;;;23.10;99.90;;;;;;4906952;29;20032;-74
2023/08/03 03:36:35;;;;;;;7.30;4.82;;;23.10;99.90;;;;;;4912021;29;20451;-74
2023/08/03 03:39:00;;;;;;;9.68;5.75;;;23.10;99.90;;;;;;4905593;29;20036;-75
2023/08/03 03:41:26;;;;;;;6.20;5.47;;;23.20;99.90;;;;;;4888138;29;20033;-74
2023/08/03 03:43:52;;;;;;;8.50;5.57;;;23.10;99.90;;;;;;4908607;29;20028;-74
2023/08/03 03:46:17;;;;;;;7.95;5.07;;;23.10;99.90;;;;;;4896203;29;20505;-75
2023/08/03 03:48:43;;;;;;;9.13;5.20;;;23.10;99.90;;;;;;4908332;29;20036;-74
2023/08/03 03:51:09;;;;;;;6.80;5.40;;;23.10;99.90;;;;;;4910298;29;20287;-75
2023/08/03 03:53:35;;;;;;;7.47;5.03;;;23.20;99.90;;;;;;4907341;29;20091;-75
2023/08/03 03:56:00;;;;;;;6.65;5.18;;;23.20;99.90;;;;;;4907349;29;20398;-75
2023/08/03 03:58:26;;;;;;;13.25;5.50;;;23.20;99.90;;;;;;4904978;29;20383;-74
2023/08/03 04:00:52;;;;;;;6.88;5.20;;;23.10;99.90;;;;;;4904758;29;20028;-75
2023/08/03 04:03:18;;;;;;;11.80;5.20;;;23.20;99.90;;;;;;4890489;29;20131;-74
2023/08/03 04:05:43;;;;;;;6.88;5.22;;;23.20;99.90;;;;;;4908459;29;20451;-74
2023/08/03 04:08:10;;;;;;;7.43;5.68;;;23.10;99.90;;;;;;4905057;29;20025;-74
2023/08/03 04:10:36;;;;;;;6.95;5.43;;;23.10;99.90;;;;;;4906860;29;20028;-74
2023/08/03 04:13:01;;;;;;;12.25;5.22;;;23.10;99.90;;;;;;4902358;29;20025;-74
2023/08/03 04:15:27;;;;;;;6.22;4.85;;;23.10;99.90;;;;;;4906513;29;20024;-75
2023/08/03 04:17:53;;;;;;;8.52;5.07;;;23.20;99.90;;;;;;4905620;29;20048;-74
2023/08/03 04:20:18;;;;;;;6.28;4.70;;;23.10;99.90;;;;;;4885276;29;20052;-75
2023/08/03 04:22:44;;;;;;;7.47;5.03;;;23.10;99.90;;;;;;4889335;29;20029;-74
2023/08/03 04:25:10;;;;;;;8.15;5.50;;;23.20;99.90;;;;;;4888722;29;20052;-75
2023/08/03 04:27:36;;;;;;;9.05;5.03;;;23.20;99.90;;;;;;4894186;29;20138;-74
2023/08/03 04:30:02;;;;;;;6.00;5.10;;;23.20;99.90;;;;;;4889849;29;20032;-75
2023/08/03 04:32:28;;;;;;;10.07;5.05;;;23.20;99.90;;;;;;4888762;29;20547;-75
2023/08/03 04:34:54;;;;;;;8.85;5.20;;;23.20;99.90;;;;;;4889030;29;20552;-75
2023/08/03 04:37:20;;;;;;;6.82;5.47;;;23.20;99.90;;;;;;4887871;29;20033;-75
2023/08/03 04:39:46;;;;;;;9.45;5.10;;;23.20;99.90;;;;;;4881197;29;20033;-75
2023/08/03 04:42:11;;;;;;;8.77;4.60;;;23.20;99.90;;;;;;4881843;29;20051;-74
2023/08/03 04:44:37;;;;;;;9.07;5.13;;;23.30;99.90;;;;;;4880045;29;20475;-75
2023/08/03 04:47:03;;;;;;;9.38;4.68;;;23.30;99.90;;;;;;4887327;29;20033;-74
2023/08/03 04:49:29;;;;;;;11.15;5.30;;;23.20;99.90;;;;;;4891413;29;20056;-74
2023/08/03 04:51:58;;;;;;;7.68;5.25;;;23.20;99.90;;;;;;4895664;29;20064;-74
2023/08/03 04:54:23;;;;;;;7.38;5.13;;;23.20;99.90;;;;;;4881837;29;20028;-74
2023/08/03 04:56:49;;;;;;;8.65;5.43;;;23.30;99.90;;;;;;4896779;29;20398;-75
2023/08/03 04:59:15;;;;;;;11.20;5.30;;;23.30;99.90;;;;;;4898261;29;20056;-75
2023/08/03 05:01:41;;;;;;;6.10;4.72;;;23.30;99.90;;;;;;4897743;29;20021;-75
2023/08/03 05:04:08;;;;;;;7.35;5.03;;;23.30;99.90;;;;;;4880444;29;20443;-75
2023/08/03 05:06:33;;;;;;;9.82;5.90;;;23.40;99.90;;;;;;4887943;29;20499;-75
2023/08/03 05:08:59;;;;;;;8.70;4.50;;;23.40;99.90;;;;;;4889266;29;20036;-75
2023/08/03 05:11:25;;;;;;;10.98;4.80;;;23.50;99.90;;;;;;4881280;29;20035;-74
2023/08/03 05:13:51;;;;;;;6.13;4.82;;;23.50;99.90;;;;;;4890975;29;20510;-75
2023/08/03 05:16:23;;;;;;;10.75;5.55;;;23.50;99.90;;;;;;4874125;29;20064;-75
2023/08/03 05:18:49;;;;;;;8.90;4.28;;;23.50;99.90;;;;;;4899795;29;20044;-74
2023/08/03 05:21:14;;;;;;;10.38;5.00;;;23.50;99.90;;;;;;4912926;29;20120;-75
2023/08/03 05:23:40;;;;;;;12.05;5.68;;;23.50;99.90;;;;;;4912900;29;20037;-74
2023/08/03 05:26:06;;;;;;;8.65;5.18;;;23.60;99.90;;;;;;4891226;29;20081;-75
2023/08/03 05:28:32;;;;;;;9.32;5.28;;;23.60;99.90;;;;;;4910306;29;20029;-74
2023/08/03 05:30:57;;;;;;;9.07;4.93;;;23.60;99.90;;;;;;4891513;29;20029;-75
2023/08/03 05:33:23;;;;;;;11.07;5.53;;;23.70;99.90;;;;;;4907737;29;20100;-74
2023/08/03 05:35:49;;;;;;;10.85;5.15;;;23.70;99.90;;;;;;4908595;29;20478;-74
2023/08/03 05:38:15;;;;;;;11.63;4.68;;;23.70;99.90;;;;;;4906760;29;20083;-75
2023/08/03 05:40:41;;;;;;;8.93;5.35;;;23.70;99.90;;;;;;4896564;29;20021;-75
2023/08/03 05:43:13;;;;;;;8.02;5.28;;;23.70;99.90;;;;;;4910303;29;20051;-75
2023/08/03 05:45:45;;;;;;;7.40;5.93;;;23.80;99.90;;;;;;4915020;29;20016;-75
2023/08/03 05:48:15;;;;;;;15.23;5.78;;;23.80;99.90;;;;;;4915095;29;20039;-76
2023/08/03 05:50:53;;;;;;;6.38;5.13;;;23.80;99.90;;;;;;4893822;29;20032;-77
2023/08/03 05:53:19;;;;;;;7.03;5.00;;;23.90;99.90;;;;;;4911009;29;20028;-77
2023/08/03 05:55:46;;;;;;;14.52;5.18;;;23.90;99.90;;;;;;4896130;29;20335;-77
2023/08/03 05:58:14;;;;;;;8.93;5.15;;;23.90;99.90;;;;;;4904022;29;20040;-77
2023/08/03 06:00:41;;;;;;;11.88;5.20;;;23.90;99.90;;;;;;4892803;29;20031;-76
2023/08/03 06:03:12;;;;;;;10.77;5.30;;;24.00;99.90;;;;;;4904763;29;20035;-77
2023/08/03 06:05:38;;;;;;;7.40;4.70;;;24.00;99.90;;;;;;4908517;29;20028;-77
2023/08/03 06:08:21;;;;;;;12.55;4.85;;;24.10;99.90;;;;;;4911022;29;20036;-77
2023/08/03 06:10:57;;;;;;;9.95;5.20;;;24.10;99.90;;;;;;4906232;29;20067;-77
2023/08/03 06:13:33;;;;;;;8.90;5.25;;;24.10;99.90;;;;;;4908619;29;20032;-77
2023/08/03 06:16:09;;;;;;;9.40;5.35;;;24.10;99.90;;;;;;4889320;29;20387;-77
2023/08/03 06:18:59;;;;;;;9.73;5.10;;;24.20;99.90;;;;;;4911317;29;20044;-77
2023/08/03 06:21:27;;;;;;;12.68;5.93;;;24.20;99.90;;;;;;4910530;29;20040;-77
2023/08/03 06:23:54;;;;;;;8.70;5.45;;;24.30;99.90;;;;;;4906140;29;20087;-77
2023/08/03 06:26:21;;;;;;;11.95;5.50;;;24.40;99.90;;;;;;4895030;29;20051;-77
2023/08/03 06:28:51;;;;;;;11.48;5.15;;;24.40;99.90;;;;;;4908361;29;20325;-77
2023/08/03 06:31:46;;;;;;;6.93;5.10;;;24.50;99.90;;;;;;4912938;29;20031;-77
2023/08/03 06:34:13;;;;;;;8.23;5.13;;;24.60;99.90;;;;;;4875989;29;20069;-77
2023/08/03 06:36:42;;;;;;;11.80;5.35;;;24.60;99.90;;;;;;4911623;29;20230;-77
2023/08/03 06:39:07;;;;;;;16.13;5.57;;;24.70;99.90;;;;;;4908617;29;20486;-77
2023/08/03 06:41:33;;;;;;;12.70;5.85;;;24.80;99.90;;;;;;4915025;29;20039;-77
2023/08/03 06:44:02;;;;;;;9.20;5.53;;;24.80;99.90;;;;;;4903464;29;20496;-77
2023/08/03 06:46:28;;;;;;;10.73;5.80;;;24.80;99.90;;;;;;4896361;29;20397;-77
2023/08/03 06:48:54;;;;;;;10.27;5.72;;;24.90;99.90;;;;;;4907981;29;20036;-77
2023/08/03 06:51:20;;;;;;;12.75;6.07;;;24.90;99.90;;;;;;4912593;29;20108;-77
2023/08/03 06:53:47;;;;;;;13.27;5.97;;;25.00;99.90;;;;;;4909467;29;20097;-77
2023/08/03 06:56:13;;;;;;;13.80;6.13;;;25.00;99.90;;;;;;4911633;29;20021;-75
2023/08/03 06:58:38;;;;;;;12.90;5.97;;;25.00;99.90;;;;;;4905403;29;20031;-77
2023/08/03 07:01:04;;;;;;;8.82;5.60;;;25.00;99.90;;;;;;4909939;29;20020;-77
2023/08/03 07:03:30;;;;;;;10.05;5.65;;;25.00;99.90;;;;;;4904950;29;20401;-77
2023/08/03 07:05:57;;;;;;;12.40;5.47;;;25.00;99.90;;;;;;4907988;29;20482;-77
2023/08/03 07:08:22;;;;;;;10.82;5.72;;;25.00;99.90;;;;;;4903229;29;20399;-77
2023/08/03 07:10:48;;;;;;;12.13;5.95;;;25.00;99.90;;;;;;4908581;29;20032;-77
2023/08/03 07:13:14;;;;;;;9.65;5.90;;;25.10;99.90;;;;;;4908781;29;20033;-77
2023/08/03 07:15:40;;;;;;;14.13;5.70;;;25.10;99.90;;;;;;4905450;29;20087;-77
2023/08/03 07:18:06;;;;;;;9.23;6.20;;;25.20;99.90;;;;;;4904175;29;20045;-77
2023/08/03 07:20:33;;;;;;;8.35;5.18;;;25.20;99.90;;;;;;4908018;29;20028;-77
2023/08/03 07:22:59;;;;;;;12.63;6.07;;;25.20;99.90;;;;;;4909035;29;20030;-77
2023/08/03 07:25:26;;;;;;;11.85;6.00;;;25.20;99.90;;;;;;4906740;29;20036;-77
2023/08/03 07:27:52;;;;;;;10.93;5.95;;;25.30;99.90;;;;;;4889720;29;20029;-77
2023/08/03 07:30:18;;;;;;;13.20;6.20;;;25.30;99.90;;;;;;4906601;29;20103;-77
2023/08/03 07:32:44;;;;;;;10.20;5.47;;;25.30;99.90;;;;;;4897786;29;20549;-77
2023/08/03 07:35:10;;;;;;;14.52;6.00;;;25.40;99.90;;;;;;4906581;29;20103;-77
2023/08/03 07:37:36;;;;;;;12.05;5.68;;;25.40;99.90;;;;;;4889710;29;20431;-77
2023/08/03 07:40:02;;;;;;;10.35;6.10;;;25.40;99.90;;;;;;4905965;29;20036;-77
2023/08/03 07:42:28;;;;;;;12.07;5.90;;;25.50;99.90;;;;;;4904128;29;20039;-77
2023/08/03 07:44:54;;;;;;;12.57;6.18;;;25.60;99.90;;;;;;4906922;29;20069;-77
2023/08/03 07:47:21;;;;;;;14.00;5.55;;;25.60;99.90;;;;;;4912743;29;20059;-77
2023/08/03 07:49:47;;;;;;;7.45;5.75;;;25.80;99.90;;;;;;4888463;29;20557;-77
2023/08/03 07:52:12;;;;;;;15.05;5.55;;;25.80;99.90;;;;;;4914124;29;20021;-77
2023/08/03 07:54:38;;;;;;;12.70;6.30;;;25.80;99.90;;;;;;4904012;29;20048;-77
2023/08/03 07:57:05;;;;;;;12.00;6.00;;;25.90;99.90;;;;;;4912519;29;20024;-76
2023/08/03 07:59:30;;;;;;;11.93;5.25;;;26.00;99.90;;;;;;4906602;29;20516;-77
2023/08/03 08:01:56;;;;;;;9.48;6.10;;;26.00;99.90;;;;;;4903956;29;20037;-77
2023/08/03 08:04:22;;;;;;;9.55;5.40;;;26.10;99.90;;;;;;4906372;29;20447;-77
2023/08/03 08:06:48;;;;;;;11.98;6.10;;;26.10;99.90;;;;;;4906642;29;20032;-77
2023/08/03 08:09:13;;;;;;;11.40;5.60;;;26.20;99.90;;;;;;4903298;29;20064;-77
2023/08/03 08:11:39;;;;;;;12.65;5.10;;;26.30;99.90;;;;;;4888253;29;20075;-76
2023/08/03 08:14:05;;;;;;;8.55;5.10;;;26.30;99.90;;;;;;4906063;29;20021;-77
2023/08/03 08:16:31;;;;;;;20.65;5.40;;;26.30;99.90;;;;;;4901435;29;20043;-77
2023/08/03 08:18:56;;;;;;;12.57;5.32;;;26.40;99.90;;;;;;4906874;29;20103;-77
2023/08/03 08:21:22;;;;;;;16.42;6.45;;;26.40;99.90;;;;;;4911548;29;20391;-76
2023/08/03 08:23:48;;;;;;;11.00;5.40;;;26.40;99.90;;;;;;4905430;29;20487;-77
2023/08/03 08:26:15;;;;;;;11.55;6.20;;;26.40;99.90;;;;;;4889799;29;20028;-77
2023/08/03 08:28:43;;;;;;;6.93;5.70;;;26.40;99.90;;;;;;4906309;29;20032;-77
2023/08/03 08:31:09;;;;;;;12.05;5.78;;;26.40;99.90;;;;;;4907477;29;20028;-77
2023/08/03 08:33:36;;;;;;;14.60;6.45;;;26.40;99.90;;;;;;4904758;29;20029;-77
2023/08/03 08:36:05;;;;;;;10.30;6.13;;;26.50;99.90;;;;;;4888144;29;20447;-77
2023/08/03 08:38:31;;;;;;;14.13;5.65;;;26.50;99.90;;;;;;4905046;29;20021;-77
2023/08/03 08:41:01;;;;;;;9.13;5.57;;;26.50;99.90;;;;;;4908952;29;20036;-77
2023/08/03 08:43:27;;;;;;;10.52;5.88;;;26.50;99.90;;;;;;4893681;29;20039;-77
2023/08/03 08:45:53;;;;;;;10.25;5.72;;;26.60;99.90;;;;;;4905498;29;20116;-77
2023/08/03 08:48:19;;;;;;;13.13;5.68;;;26.70;99.90;;;;;;4903185;29;20127;-77
2023/08/03 08:50:46;;;;;;;9.05;5.32;;;26.70;99.90;;;;;;4906728;29;20052;-77
2023/08/03 08:53:14;;;;;;;13.95;6.07;;;26.70;99.90;;;;;;4909179;29;20032;-77
2023/08/03 08:55:40;;;;;;;5.85;5.25;;;26.70;99.90;;;;;;4905278;29;20024;-77
2023/08/03 08:58:05;;;;;;;8.80;5.20;;;26.70;99.90;;;;;;4902365;29;20077;-77
2023/08/03 09:00:44;;;;;;;9.95;6.15;;;26.80;99.90;;;;;;4906395;29;20031;-77
2023/08/03 09:03:10;;;;;;;12.65;5.78;;;26.80;99.90;;;;;;4905202;29;20111;-77
2023/08/03 09:05:37;;;;;;;11.27;5.32;;;26.80;99.90;;;;;;4904596;29;20213;-77
2023/08/03 09:08:07;;;;;;;15.75;6.13;;;26.80;99.90;;;;;;4902997;29;20021;-77
2023/08/03 09:10:56;;;;;;;10.23;5.90;;;26.90;99.90;;;;;;4907308;29;20036;-77
2023/08/03 09:13:39;;;;;;;9.82;5.53;;;27.00;99.90;;;;;;4910019;29;20029;-77
2023/08/03 09:16:06;;;;;;;9.93;5.18;;;26.90;99.90;;;;;;4915906;29;20028;-77
2023/08/03 09:18:32;;;;;;;7.50;5.40;;;26.80;99.90;;;;;;4910262;29;20479;-77
2023/08/03 09:21:14;;;;;;;13.00;5.22;;;26.90;99.90;;;;;;4911532;29;20042;-77
2023/08/03 09:23:40;;;;;;;8.05;4.55;;;27.10;99.90;;;;;;4892967;29;20028;-77
2023/08/03 09:26:06;;;;;;;8.02;4.95;;;27.10;99.90;;;;;;4910575;29;20032;-76
2023/08/03 09:28:40;;;;;;;12.95;5.25;;;27.30;99.90;;;;;;4899188;29;20436;-77
2023/08/03 09:31:07;;;;;;;10.90;5.53;;;27.30;99.90;;;;;;4907877;29;20032;-77
2023/08/03 09:33:34;;;;;;;9.93;5.18;;;27.30;99.90;;;;;;4905733;29;20028;-77
2023/08/03 09:36:11;;;;;;;8.15;5.53;;;27.30;99.90;;;;;;4910395;29;20141;-77
2023/08/03 09:38:38;;;;;;;14.65;5.18;;;27.40;99.90;;;;;;4896241;29;20117;-77
2023/08/03 09:41:03;;;;;;;8.07;5.15;;;27.50;99.90;;;;;;4908343;29;20435;-77
2023/08/03 09:43:31;;;;;;;13.65;4.85;;;27.50;99.90;;;;;;4905980;29;20024;-76
2023/08/03 09:45:57;;;;;;;9.93;5.00;;;27.60;99.90;;;;;;4913659;29;20032;-77
2023/08/03 09:48:26;;;;;;;8.07;4.90;;;27.60;99.90;;;;;;4908079;29;20020;-77
2023/08/03 09:50:54;;;;;;;12.05;5.30;;;27.70;99.90;;;;;;4910049;29;20036;-77
2023/08/03 09:53:23;;;;;;;8.23;5.65;;;27.70;99.90;;;;;;4910057;29;20032;-77
2023/08/03 09:55:58;;;;;;;8.43;5.40;;;27.70;99.90;;;;;;4905754;29;20286;-77
2023/08/03 09:58:45;;;;;;;7.75;5.05;;;27.70;99.90;;;;;;4911829;29;20361;-77
2023/08/03 10:01:14;;;;;;;10.90;6.03;;;27.70;99.90;;;;;;4907600;29;20056;-77
2023/08/03 10:03:44;;;;;;;12.68;5.75;;;27.70;99.90;;;;;;4902514;29;20020;-77
2023/08/03 10:06:17;;;;;;;8.68;5.60;;;27.70;99.90;;;;;;4912376;29;20035;-77
2023/08/03 10:08:56;;;;;;;10.68;5.72;;;27.80;99.90;;;;;;4908756;29;20028;-77
2023/08/03 10:11:26;;;;;;;13.18;6.25;;;27.90;99.90;;;;;;4892127;29;20028;-76
2023/08/03 10:13:55;;;;;;;9.90;6.13;;;28.00;99.90;;;;;;4906338;29;20039;-77
2023/08/03 10:16:21;;;;;;;13.77;5.95;;;28.20;99.90;;;;;;4894832;29;20084;-77
2023/08/03 10:18:47;;;;;;;7.07;4.93;;;28.10;99.90;;;;;;4908396;29;20048;-77
2023/08/03 10:21:13;;;;;;;9.65;4.82;;;28.20;99.90;;;;;;4910938;29;20050;-77
2023/08/03 10:23:39;;;;;;;7.20;5.00;;;28.30;99.90;;;;;;4910397;29;20029;-77
2023/08/03 10:26:09;;;;;;;8.73;5.47;;;28.40;99.90;;;;;;4907331;29;20032;-77
2023/08/03 10:28:40;;;;;;;11.32;4.60;;;28.50;99.90;;;;;;4890283;29;20035;-77
2023/08/03 10:31:11;;;;;;;;;;;28.50;99.90;;;;;;4894398;29;20028;-77
2023/08/03 10:33:49;;;;;;;6.13;5.07;;;28.60;99.90;;;;;;4897194;29;20381;-77
2023/08/03 10:38:59;;;;;;;5.67;4.63;;;28.70;99.90;;;;;;4909055;29;20040;-77
2023/08/03 10:41:27;;;;;;;6.13;4.50;;;28.60;99.90;;;;;;4912068;29;20745;-76
2023/08/03 10:44:09;;;;;;;6.38;4.45;;;28.60;99.90;;;;;;4917776;29;20027;-77
2023/08/03 10:46:34;;;;;;;;;;;28.60;99.90;;;;;;4911939;29;20035;-77
2023/08/03 10:49:28;;;;;;;9.43;4.28;;;28.60;99.90;;;;;;4916164;29;19993;-76
2023/08/03 10:52:15;;;;;;;6.57;4.93;;;28.70;99.90;;;;;;4877428;29;20420;-77
2023/08/03 10:54:41;;;;;;;6.85;5.15;;;28.70;99.90;;;;;;4872426;29;20526;-77
2023/08/03 10:57:12;;;;;;;7.65;4.47;;;28.70;99.90;;;;;;4909116;29;20115;-77
2023/08/03 10:59:43;;;;;;;8.57;4.47;;;28.80;99.90;;;;;;4900528;29;20407;-77
2023/08/03 11:02:30;;;;;;;;;;;28.80;99.90;;;;;;4901516;29;20083;-77
2023/08/03 11:04:58;;;;;;;7.70;4.75;;;28.90;99.90;;;;;;4900695;29;19914;-77
2023/08/03 11:07:34;;;;;;;8.82;4.32;;;29.00;99.90;;;;;;4917451;29;20103;-77
2023/08/03 11:10:02;;;;;;;8.10;5.05;;;28.90;99.90;;;;;;4917072;29;20367;-76
2023/08/03 11:12:31;;;;;;;9.35;4.13;;;28.80;99.90;;;;;;4917401;29;20116;-77
2023/08/03 11:14:59;;;;;;;8.88;5.50;;;28.80;99.90;;;;;;4916723;29;20559;-77
2023/08/03 11:17:29;;;;;;;9.65;4.50;;;28.70;99.90;;;;;;4916896;29;20016;-77
2023/08/03 11:19:56;;;;;;;5.87;4.60;;;28.80;99.90;;;;;;4917233;29;20048;-77
2023/08/03 11:22:24;;;;;;;11.20;5.63;;;28.90;99.90;;;;;;4903826;29;20119;-77
2023/08/03 11:24:54;;;;;;;5.80;4.32;;;28.90;99.90;;;;;;4916687;29;20028;-77
2023/08/03 11:27:20;;;;;;;5.78;3.85;;;29.00;99.90;;;;;;4915153;29;20024;-77
2023/08/03 11:29:46;;;;;;;8.85;4.28;;;29.10;99.90;;;;;;4915219;29;20501;-77
2023/08/03 11:32:12;;;;;;;9.15;5.07;;;29.30;99.90;;;;;;4916656;29;20035;-76
2023/08/03 11:34:40;;;;;;;4.95;4.50;;;29.40;99.90;;;;;;4915992;29;20398;-77
2023/08/03 11:37:07;;;;;;;6.93;4.13;;;29.50;99.90;;;;;;4912301;29;20024;-76
2023/08/03 11:39:33;;;;;;;6.70;4.78;;;29.70;99.90;;;;;;4909690;29;20024;-75
2023/08/03 11:42:00;;;;;;;7.95;5.15;;;29.80;99.90;;;;;;4911915;29;20063;-76
2023/08/03 11:44:26;;;;;;;5.57;4.10;;;29.90;99.90;;;;;;4911140;29;20502;-75
2023/08/03 11:47:08;;;;;;;10.30;4.88;;;30.10;99.90;;;;;;4908312;29;20035;-74
2023/08/03 11:49:34;;;;;;;8.30;4.57;;;30.30;99.90;;;;;;4908451;29;20032;-74
2023/08/03 11:52:00;;;;;;;5.88;4.40;;;30.30;99.90;;;;;;4910046;29;20028;-74
2023/08/03 11:54:34;;;;;;;7.60;4.90;;;30.20;99.90;;;;;;4902126;29;20052;-74
2023/08/03 11:59:52;;;;;;;7.03;3.78;;;30.10;99.90;;;;;;4907071;29;20043;-74
2023/08/03 12:02:38;;;;;;;4.72;4.30;;;30.20;99.90;;;;;;4911181;29;20036;-74
2023/08/03 12:05:06;;;;;;;8.55;4.38;;;30.20;99.90;;;;;;4902982;29;20707;-74
2023/08/03 12:07:32;;;;;;;6.10;4.35;;;30.30;99.90;;;;;;4908266;29;20065;-74
2023/08/03 12:10:08;;;;;;;9.52;4.53;;;30.50;99.90;;;;;;4904137;29;20086;-74
2023/08/03 12:12:33;;;;;;;7.80;4.38;;;30.50;99.90;;;;;;4904041;29;20033;-74
2023/08/03 12:14:59;;;;;;;6.80;4.47;;;30.50;99.90;;;;;;4881092;29;20023;-75
2023/08/03 12:17:25;;;;;;;9.43;4.32;;;30.80;99.90;;;;;;4912033;29;20024;-75
2023/08/03 12:19:51;;;;;;;4.47;3.78;;;30.80;99.90;;;;;;4904454;29;20031;-74
2023/08/03 12:22:16;;;;;;;6.60;4.68;;;30.80;99.90;;;;;;4906369;29;20032;-74
2023/08/03 12:24:42;;;;;;;5.53;4.30;;;30.70;99.90;;;;;;4885703;29;20029;-74
2023/08/03 12:27:08;;;;;;;6.05;4.78;;;30.80;99.90;;;;;;4902121;29;20081;-74
2023/08/03 12:29:34;;;;;;;5.65;4.25;;;30.60;99.90;;;;;;4907168;29;20118;-75
2023/08/03 12:44:08;;;;;;;9.27;4.35;;;30.50;99.90;;;;;;6104046;22;1451708;-78
2023/08/03 12:46:34;;;;;;;11.70;5.07;;;30.90;99.90;;;;;;6163854;23;20005;-78
2023/08/03 12:49:00;;;;;;;6.22;4.47;;;30.70;99.90;;;;;;6164214;23;20001;-78
2023/08/03 12:51:26;;;;;;;5.97;4.47;;;30.70;99.90;;;;;;6163609;23;20005;-78
2023/08/03 12:53:52;;;;;;;4.82;4.07;;;30.60;99.90;;;;;;6163671;23;20001;-78
2023/08/03 12:56:18;;;;;;;4.75;4.15;;;30.50;99.90;;;;;;6164065;23;20129;-78
2023/08/03 12:58:44;;;;;;;9.75;4.22;;;30.70;99.90;;;;;;6163774;23;20005;-78
2023/08/03 13:01:10;;;;;;;10.98;4.55;;;30.90;99.90;;;;;;6163818;23;20487;-78
2023/08/03 13:03:37;;;;;;;4.20;3.80;;;31.10;99.90;;;;;;6163701;23;20024;-78